Time;durP1;ratioP1;P1;durP2;ratioP2;P2;SDS_P1;SDS_P2;PMS_P1;PMS_P2;Temp;Humidity;BMP_temperature;BMP_pressure;BME280_temperature;BME280_humidity;BME280_pressure;Samples;Min_cycle;Max_cycle;Signal;HPM_P1;HPM_P2
2023/08/16 00:00:26;;;;;;;6.53;3.53;;;;;;;;;;5012130;28;20800;-51
2023/08/16 00:02:52;;;;;;;4.10;2.37;;;;;;;;;;5011976;28;20194;-51
2023/08/16 00:05:18;;;;;;;7.37;2.40;;;;;;;;;;5012339;28;20201;-51
2023/08/16 00:07:45;;;;;;;3.33;2.33;;;;;;;;;;5012004;28;20259;-51
2023/08/16 00:10:13;;;;;;;4.37;1.90;;;;;;;;;;5011704;28;20231;-50
2023/08/16 00:12:39;;;;;;;4.40;2.10;;;;;;;;;;5011838;28;20622;-50
2023/08/16 00:15:06;;;;;;;3.67;2.00;;;;;;;;;;5011872;28;20277;-49
2023/08/16 00:17:33;;;;;;;3.20;1.70;;;;;;;;;;5012217;28;20275;-51
2023/08/16 00:19:59;;;;;;;4.90;2.30;;;;;;;;;;5011644;28;20212;-52
2023/08/16 00:22:25;;;;;;;2.97;1.97;;;;;;;;;;5011731;28;20194;-51
2023/08/16 00:24:51;;;;;;;4.47;2.10;;;;;;;;;;5011749;28;20682;-52
2023/08/16 00:27:19;;;;;;;4.97;2.77;;;;;;;;;;5011743;28;20756;-51
2023/08/16 00:29:46;;;;;;;6.13;3.20;;;;;;;;;;5011089;28;20237;-52
2023/08/16 00:32:12;;;;;;;4.20;2.20;;;;;;;;;;5011178;28;20658;-51
2023/08/16 00:34:38;;;;;;;4.20;2.20;;;;;;;;;;5011451;28;20192;-50
2023/08/16 00:37:05;;;;;;;3.97;2.30;;;;;;;;;;5011578;28;20197;-50
2023/08/16 00:39:31;;;;;;;2.80;1.97;;;;;;;;;;5011306;28;20670;-50
2023/08/16 00:41:57;;;;;;;2.50;2.00;;;;;;;;;;5011303;28;20201;-51
2023/08/16 00:44:24;;;;;;;2.77;2.00;;;;;;;;;;5011400;28;20235;-50
2023/08/16 00:46:50;;;;;;;5.77;2.50;;;;;;;;;;5011422;28;20202;-49
2023/08/16 00:49:17;;;;;;;4.37;1.93;;;;;;;;;;5011382;28;20285;-51
2023/08/16 00:51:43;;;;;;;3.90;1.90;;;;;;;;;;5011245;28;20220;-50
2023/08/16 00:54:09;;;;;;;3.17;2.20;;;;;;;;;;4993718;28;20330;-52
2023/08/16 00:56:35;;;;;;;3.27;2.10;;;;;;;;;;5011431;28;20201;-53
2023/08/16 00:59:01;;;;;;;6.07;2.00;;;;;;;;;;5011293;28;20271;-51
2023/08/16 01:01:29;;;;;;;4.37;1.90;;;;;;;;;;5011183;28;20204;-49
2023/08/16 01:03:55;;;;;;;3.90;2.20;;;;;;;;;;5010994;28;20220;-52
2023/08/16 01:06:21;;;;;;;4.53;2.10;;;;;;;;;;5010931;28;20205;-49
2023/08/16 01:08:47;;;;;;;6.43;2.30;;;;;;;;;;5011157;28;20189;-52
2023/08/16 01:11:20;;;;;;;2.13;1.53;;;;;;;;;;5010771;28;20241;-52
2023/08/16 01:13:50;;;;;;;5.40;1.90;;;;;;;;;;5011104;28;20634;-52
2023/08/16 01:16:18;;;;;;;3.40;1.93;;;;;;;;;;5010852;28;20197;-52
2023/08/16 01:18:46;;;;;;;4.90;2.20;;;;;;;;;;5010908;28;20208;-52
2023/08/16 01:21:12;;;;;;;;;;;;;;;;;;5010896;28;20672;-51
2023/08/16 01:23:38;;;;;;;;;;;;;;;;;;5011082;28;20034;-50
2023/08/16 01:26:03;;;;;;;;;;;;;;;;;;5011160;28;19948;-52
2023/08/16 01:28:29;;;;;;;;;;;;;;;;;;5011273;28;19998;-50
2023/08/16 01:30:55;;;;;;;;;;;;;;;;;;5011166;28;20352;-52
2023/08/16 01:33:21;;;;;;;;;;;;;;;;;;5011132;28;19957;-50
2023/08/16 01:35:47;;;;;;;;;;;;;;;;;;5011392;28;20015;-52
2023/08/16 01:38:14;;;;;;;;;;;;;;;;;;5011095;28;20001;-51
2023/08/16 01:40:44;;;;;;;3.07;2.00;;;;;;;;;;5010565;28;19951;-53
2023/08/16 01:43:11;;;;;;;3.90;1.90;;;;;;;;;;5013221;28;20204;-49
2023/08/16 01:45:37;;;;;;;3.80;2.33;;;;;;;;;;5014670;28;20201;-52
2023/08/16 01:48:03;;;;;;;3.13;2.20;;;;;;;;;;5014738;28;20664;-52
2023/08/16 01:50:29;;;;;;;3.77;2.00;;;;;;;;;;5014668;28;20693;-49
2023/08/16 01:52:56;;;;;;;5.67;2.50;;;;;;;;;;5014461;28;20248;-51
2023/08/16 01:55:22;;;;;;;3.30;1.90;;;;;;;;;;5014359;28;20193;-50
2023/08/16 01:57:49;;;;;;;4.60;2.10;;;;;;;;;;5014891;28;20224;-50
2023/08/16 02:00:16;;;;;;;5.20;2.23;;;;;;;;;;5014390;28;20217;-50
2023/08/16 02:02:42;;;;;;;4.87;2.20;;;;;;;;;;5014374;28;20286;-50
2023/08/16 02:05:08;;;;;;;4.40;2.03;;;;;;;;;;5014117;28;20288;-50
2023/08/16 02:07:34;;;;;;;3.37;1.93;;;;;;;;;;5014399;28;20240;-50
2023/08/16 02:10:00;;;;;;;2.50;1.83;;;;;;;;;;5014395;28;20205;-49
2023/08/16 02:12:26;;;;;;;4.17;1.77;;;;;;;;;;5014025;28;20738;-50
2023/08/16 02:14:54;;;;;;;3.93;1.90;;;;;;;;;;5014071;28;20239;-50
2023/08/16 02:17:20;;;;;;;3.97;2.10;;;;;;;;;;5014086;28;20308;-50
2023/08/16 02:19:46;;;;;;;3.43;2.13;;;;;;;;;;5014260;28;20251;-50
2023/08/16 02:22:12;;;;;;;3.87;1.93;;;;;;;;;;5013771;28;20200;-50
2023/08/16 02:24:38;;;;;;;5.00;2.20;;;;;;;;;;5013856;28;20208;-51
2023/08/16 02:27:04;;;;;;;3.17;2.00;;;;;;;;;;5013879;28;20619;-51
2023/08/16 02:29:30;;;;;;;3.63;1.80;;;;;;;;;;5013750;28;20260;-52
2023/08/16 02:31:57;;;;;;;3.10;2.20;;;;;;;;;;5013626;28;20934;-50
2023/08/16 02:34:23;;;;;;;3.50;2.03;;;;;;;;;;5013593;28;20203;-51
2023/08/16 02:36:49;;;;;;;4.57;2.60;;;;;;;;;;5013939;28;20276;-50
2023/08/16 02:39:17;;;;;;;4.30;2.10;;;;;;;;;;5013569;28;20300;-51
2023/08/16 02:41:43;;;;;;;3.93;2.10;;;;;;;;;;5013756;28;20205;-50
2023/08/16 02:44:09;;;;;;;4.00;2.37;;;;;;;;;;5013414;28;20457;-50
2023/08/16 02:46:35;;;;;;;2.37;1.70;;;;;;;;;;5013711;28;20201;-52
2023/08/16 02:49:02;;;;;;;2.20;1.97;;;;;;;;;;5013493;28;20201;-52
2023/08/16 02:51:28;;;;;;;7.23;2.30;;;;;;;;;;5013270;28;20667;-51
2023/08/16 02:53:54;;;;;;;3.67;2.10;;;;;;;;;;5013003;28;20246;-51
2023/08/16 02:56:20;;;;;;;3.00;1.90;;;;;;;;;;5013319;28;20199;-52
2023/08/16 02:58:46;;;;;;;4.53;2.30;;;;;;;;;;5013390;28;20701;-49
2023/08/16 03:01:14;;;;;;;2.30;1.80;;;;;;;;;;5013288;28;20238;-49
2023/08/16 03:03:40;;;;;;;3.27;1.70;;;;;;;;;;5013251;28;20215;-50
2023/08/16 03:06:08;;;;;;;3.23;1.80;;;;;;;;;;5013127;28;20205;-49
2023/08/16 03:08:34;;;;;;;2.40;1.60;;;;;;;;;;5013093;28;20263;-51
2023/08/16 03:11:00;;;;;;;2.33;1.80;;;;;;;;;;5013040;28;20197;-50
2023/08/16 03:13:26;;;;;;;3.87;2.30;;;;;;;;;;5012801;28;20315;-51
2023/08/16 03:15:52;;;;;;;2.60;2.17;;;;;;;;;;5012922;28;20208;-51
2023/08/16 03:18:18;;;;;;;2.70;1.83;;;;;;;;;;5012955;28;20197;-50
2023/08/16 03:20:44;;;;;;;4.17;1.90;;;;;;;;;;5012792;28;20235;-50
2023/08/16 03:23:11;;;;;;;4.63;2.37;;;;;;;;;;5012763;28;20200;-49
2023/08/16 03:25:37;;;;;;;3.93;2.00;;;;;;;;;;5012709;28;20205;-50
2023/08/16 03:28:03;;;;;;;3.73;2.10;;;;;;;;;;5012664;28;20588;-50
2023/08/16 03:30:29;;;;;;;3.30;1.90;;;;;;;;;;5012741;28;20572;-50
2023/08/16 03:32:55;;;;;;;3.30;1.90;;;;;;;;;;5012489;28;20225;-50
2023/08/16 03:35:21;;;;;;;3.60;1.90;;;;;;;;;;5012632;28;20697;-50
2023/08/16 03:37:48;;;;;;;3.97;1.80;;;;;;;;;;5012624;28;20952;-51
2023/08/16 03:40:15;;;;;;;4.53;2.30;;;;;;;;;;5012282;28;20576;-50
2023/08/16 03:42:41;;;;;;;3.37;1.77;;;;;;;;;;5012548;28;20209;-51
2023/08/16 03:45:07;;;;;;;5.07;1.90;;;;;;;;;;5012392;28;20248;-50
2023/08/16 03:47:33;;;;;;;3.30;1.93;;;;;;;;;;5012458;28;20190;-50
2023/08/16 03:49:59;;;;;;;3.17;2.00;;;;;;;;;;5012445;28;20255;-50
2023/08/16 03:52:25;;;;;;;2.00;1.80;;;;;;;;;;5009751;28;20275;-50
2023/08/16 03:54:52;;;;;;;3.00;1.97;;;;;;;;;;5011914;28;20604;-50
2023/08/16 03:57:19;;;;;;;3.03;2.07;;;;;;;;;;5012273;28;20296;-50
2023/08/16 03:59:45;;;;;;;4.00;1.77;;;;;;;;;;5012401;28;20205;-50
2023/08/16 04:02:11;;;;;;;4.50;2.23;;;;;;;;;;5011979;28;20256;-50
2023/08/16 04:04:37;;;;;;;4.47;2.03;;;;;;;;;;5011392;28;20201;-50
2023/08/16 04:07:03;;;;;;;3.73;2.27;;;;;;;;;;5012102;28;20276;-50
2023/08/16 04:09:29;;;;;;;5.50;2.10;;;;;;;;;;5011847;28;20710;-51
2023/08/16 04:11:55;;;;;;;6.20;2.27;;;;;;;;;;5011986;28;20211;-51
2023/08/16 04:14:23;;;;;;;4.60;2.30;;;;;;;;;;5011723;28;20240;-51
2023/08/16 04:16:49;;;;;;;5.97;2.37;;;;;;;;;;5011588;28;20559;-51
2023/08/16 04:19:15;;;;;;;3.83;2.13;;;;;;;;;;5011918;28;20572;-51
2023/08/16 04:21:41;;;;;;;3.97;2.20;;;;;;;;;;5011763;28;20198;-51
2023/08/16 04:24:07;;;;;;;4.10;2.73;;;;;;;;;;5011595;28;20655;-51
2023/08/16 04:26:33;;;;;;;5.57;2.57;;;;;;;;;;5011807;28;20220;-51
2023/08/16 04:28:59;;;;;;;3.27;2.00;;;;;;;;;;5010866;28;20244;-54
2023/08/16 04:31:26;;;;;;;4.17;2.30;;;;;;;;;;5010661;28;20259;-49
2023/08/16 04:33:53;;;;;;;4.13;2.10;;;;;;;;;;5011248;28;20237;-50
2023/08/16 04:36:19;;;;;;;4.07;2.20;;;;;;;;;;5011341;28;20300;-51
2023/08/16 04:38:45;;;;;;;3.80;2.40;;;;;;;;;;5011357;28;20216;-50
2023/08/16 04:41:11;;;;;;;3.47;2.33;;;;;;;;;;5011264;28;20276;-51
2023/08/16 04:43:37;;;;;;;5.47;2.57;;;;;;;;;;5011355;28;20652;-49
2023/08/16 04:46:04;;;;;;;5.53;2.37;;;;;;;;;;5011698;28;20200;-51
2023/08/16 04:48:31;;;;;;;5.77;2.40;;;;;;;;;;5011174;28;20271;-50
2023/08/16 04:50:57;;;;;;;4.47;2.40;;;;;;;;;;5011388;28;20244;-51
2023/08/16 04:53:23;;;;;;;5.77;2.40;;;;;;;;;;5011089;28;20253;-51
2023/08/16 04:55:49;;;;;;;5.40;2.67;;;;;;;;;;5011253;28;20283;-50
2023/08/16 04:58:15;;;;;;;4.60;2.30;;;;;;;;;;5011143;28;20251;-51
2023/08/16 05:00:41;;;;;;;3.70;2.10;;;;;;;;;;5010996;28;20502;-51
2023/08/16 05:03:07;;;;;;;5.47;2.53;;;;;;;;;;5011039;28;20235;-50
2023/08/16 05:05:35;;;;;;;7.07;2.60;;;;;;;;;;5011030;28;20197;-51
2023/08/16 05:08:01;;;;;;;5.57;2.47;;;;;;;;;;5011154;28;20240;-50
2023/08/16 05:10:27;;;;;;;3.70;2.10;;;;;;;;;;5010859;28;20205;-51
2023/08/16 05:12:53;;;;;;;4.27;2.20;;;;;;;;;;5010836;28;20267;-50
2023/08/16 05:15:19;;;;;;;7.07;2.50;;;;;;;;;;5010961;28;20596;-50
2023/08/16 05:17:45;;;;;;;5.63;2.17;;;;;;;;;;5011074;28;20205;-50
2023/08/16 05:20:11;;;;;;;6.50;2.53;;;;;;;;;;5010827;28;20232;-50
2023/08/16 05:22:38;;;;;;;4.50;2.23;;;;;;;;;;5010697;28;20220;-51
2023/08/16 05:25:05;;;;;;;4.97;2.20;;;;;;;;;;5002836;28;20275;-50
2023/08/16 05:27:31;;;;;;;3.47;2.30;;;;;;;;;;5010570;28;20252;-50
2023/08/16 05:29:57;;;;;;;4.10;2.50;;;;;;;;;;5010782;28;20237;-51
2023/08/16 05:32:23;;;;;;;4.27;3.03;;;;;;;;;;5010580;28;20217;-51
2023/08/16 05:34:52;;;;;;;4.90;2.20;;;;;;;;;;5011043;28;20197;-51
2023/08/16 05:37:18;;;;;;;5.30;2.53;;;;;;;;;;5010877;28;20284;-51
2023/08/16 05:39:46;;;;;;;2.73;2.07;;;;;;;;;;5010750;28;20186;-50
2023/08/16 05:42:12;;;;;;;6.70;2.73;;;;;;;;;;5010539;28;20672;-51
2023/08/16 05:44:39;;;;;;;4.50;2.50;;;;;;;;;;5010663;28;20201;-51
2023/08/16 05:47:05;;;;;;;4.07;2.37;;;;;;;;;;5002818;28;20201;-50
2023/08/16 05:49:31;;;;;;;5.37;3.00;;;;;;;;;;5010656;28;20206;-50
2023/08/16 05:51:57;;;;;;;4.77;2.27;;;;;;;;;;5010452;28;20210;-49
2023/08/16 05:54:23;;;;;;;6.53;2.50;;;;;;;;;;5010357;28;20221;-51
2023/08/16 05:56:51;;;;;;;6.10;3.00;;;;;;;;;;5010628;28;20694;-51
2023/08/16 05:59:17;;;;;;;3.63;2.27;;;;;;;;;;5010560;28;20544;-51
2023/08/16 06:01:43;;;;;;;3.80;2.43;;;;;;;;;;5010397;28;20209;-50
2023/08/16 06:04:09;;;;;;;5.90;3.07;;;;;;;;;;5010441;28;20217;-51
2023/08/16 06:06:35;;;;;;;5.50;2.70;;;;;;;;;;5010354;28;20679;-50
2023/08/16 06:09:01;;;;;;;5.33;2.80;;;;;;;;;;5010318;28;20283;-50
2023/08/16 06:11:27;;;;;;;5.33;2.80;;;;;;;;;;5010311;28;20621;-50
2023/08/16 06:13:54;;;;;;;6.77;2.90;;;;;;;;;;5010145;28;20717;-51
2023/08/16 06:16:20;;;;;;;4.77;2.70;;;;;;;;;;5010328;28;20205;-51
2023/08/16 06:18:46;;;;;;;3.50;2.43;;;;;;;;;;5010343;28;20203;-52
2023/08/16 06:21:12;;;;;;;5.97;2.93;;;;;;;;;;5010168;28;20545;-51
2023/08/16 06:23:39;;;;;;;5.17;2.43;;;;;;;;;;5010075;28;20247;-51
2023/08/16 06:26:05;;;;;;;4.87;2.73;;;;;;;;;;5002099;28;20607;-50
2023/08/16 06:28:31;;;;;;;6.60;2.53;;;;;;;;;;4984600;28;20234;-52
2023/08/16 06:30:58;;;;;;;3.23;2.10;;;;;;;;;;4994639;28;20206;-51
2023/08/16 06:33:25;;;;;;;8.47;2.83;;;;;;;;;;4994344;28;20258;-51
2023/08/16 06:35:54;;;;;;;3.50;2.40;;;;;;;;;;4994522;28;20676;-51
2023/08/16 06:38:20;;;;;;;5.53;2.50;;;;;;;;;;4994503;28;20264;-51
2023/08/16 06:40:46;;;;;;;3.57;2.50;;;;;;;;;;4994511;28;20660;-52
2023/08/16 06:43:12;;;;;;;3.93;2.23;;;;;;;;;;4994371;28;20198;-52
2023/08/16 06:45:39;;;;;;;5.70;3.03;;;;;;;;;;4994192;28;20201;-50
2023/08/16 06:48:07;;;;;;;5.17;2.50;;;;;;;;;;4986587;28;20699;-49
2023/08/16 06:50:33;;;;;;;5.50;2.70;;;;;;;;;;4994439;28;20202;-49
2023/08/16 06:52:59;;;;;;;7.87;3.07;;;;;;;;;;4994076;28;20594;-49
2023/08/16 06:55:25;;;;;;;4.40;3.10;;;;;;;;;;4993876;28;20213;-48
2023/08/16 06:57:51;;;;;;;4.83;2.90;;;;;;;;;;4994100;28;20289;-48
2023/08/16 07:00:17;;;;;;;4.57;3.03;;;;;;;;;;4994186;28;20285;-48
2023/08/16 07:02:43;;;;;;;6.03;2.97;;;;;;;;;;4993811;28;20663;-48
2023/08/16 07:05:12;;;;;;;5.40;3.30;;;;;;;;;;4993925;28;20706;-48
2023/08/16 07:07:38;;;;;;;3.93;2.97;;;;;;;;;;4993873;28;21039;-50
2023/08/16 07:10:04;;;;;;;6.17;3.03;;;;;;;;;;4993969;28;20233;-49
2023/08/16 07:12:30;;;;;;;6.10;3.00;;;;;;;;;;4993629;28;20913;-50
2023/08/16 07:14:56;;;;;;;4.57;2.90;;;;;;;;;;4993754;28;20230;-51
2023/08/16 07:17:22;;;;;;;4.23;2.87;;;;;;;;;;4993586;28;20205;-50
2023/08/16 07:19:50;;;;;;;7.17;3.27;;;;;;;;;;4993888;28;20204;-50
2023/08/16 07:22:17;;;;;;;3.83;2.63;;;;;;;;;;4993766;28;20213;-51
2023/08/16 07:24:43;;;;;;;4.00;3.13;;;;;;;;;;4993421;28;20197;-50
2023/08/16 07:27:09;;;;;;;4.67;2.80;;;;;;;;;;4993091;28;20245;-50
2023/08/16 07:29:35;;;;;;;5.10;3.90;;;;;;;;;;5007721;28;20275;-50
2023/08/16 07:32:01;;;;;;;4.97;2.90;;;;;;;;;;5012959;28;20276;-50
2023/08/16 07:34:27;;;;;;;4.03;3.03;;;;;;;;;;5012795;28;20206;-50
2023/08/16 07:36:53;;;;;;;5.50;2.60;;;;;;;;;;5012712;28;20682;-50
2023/08/16 07:39:21;;;;;;;5.53;3.17;;;;;;;;;;5012088;28;20206;-51
2023/08/16 07:41:47;;;;;;;4.23;3.00;;;;;;;;;;5012288;28;20194;-50
2023/08/16 07:44:13;;;;;;;4.07;2.77;;;;;;;;;;5012380;28;20201;-50
2023/08/16 07:46:39;;;;;;;6.63;2.80;;;;;;;;;;5012489;28;20831;-51
2023/08/16 07:49:06;;;;;;;8.80;3.40;;;;;;;;;;5012645;28;20197;-50
2023/08/16 07:51:32;;;;;;;7.30;2.80;;;;;;;;;;5012469;28;20299;-50
2023/08/16 07:53:58;;;;;;;4.20;2.80;;;;;;;;;;5012002;28;20252;-50
2023/08/16 07:56:25;;;;;;;4.23;2.80;;;;;;;;;;5011987;28;20623;-50
2023/08/16 07:58:51;;;;;;;7.00;2.77;;;;;;;;;;5012118;28;20285;-51
2023/08/16 08:01:17;;;;;;;6.53;2.67;;;;;;;;;;5012573;28;20209;-50
2023/08/16 08:03:43;;;;;;;3.00;2.07;;;;;;;;;;5011956;28;20280;-49
2023/08/16 08:06:09;;;;;;;5.07;2.67;;;;;;;;;;5011534;28;20580;-48
2023/08/16 08:08:35;;;;;;;3.27;2.50;;;;;;;;;;5011941;28;20209;-49
2023/08/16 08:11:01;;;;;;;4.20;2.80;;;;;;;;;;5012517;28;20542;-50
2023/08/16 08:13:28;;;;;;;5.47;3.00;;;;;;;;;;5012042;28;20287;-50
2023/08/16 08:15:55;;;;;;;4.77;2.87;;;;;;;;;;5011773;28;20289;-51
2023/08/16 08:18:21;;;;;;;5.07;2.77;;;;;;;;;;5012161;28;20307;-52
2023/08/16 08:20:47;;;;;;;4.63;2.80;;;;;;;;;;5011897;28;20615;-53
2023/08/16 08:23:13;;;;;;;5.93;3.30;;;;;;;;;;5011890;28;20209;-53
2023/08/16 08:25:42;;;;;;;6.07;2.80;;;;;;;;;;5011587;28;20197;-52
2023/08/16 08:28:08;;;;;;;4.93;3.47;;;;;;;;;;5011201;28;20228;-52
2023/08/16 08:30:36;;;;;;;5.23;3.00;;;;;;;;;;5008244;28;20208;-52
2023/08/16 08:33:02;;;;;;;6.73;2.90;;;;;;;;;;5011946;28;20249;-52
2023/08/16 08:35:28;;;;;;;3.57;2.40;;;;;;;;;;5011558;28;20683;-52
2023/08/16 08:37:54;;;;;;;7.60;3.13;;;;;;;;;;5011368;28;20851;-52
2023/08/16 08:40:20;;;;;;;8.13;2.93;;;;;;;;;;5011583;28;20217;-53
2023/08/16 08:42:49;;;;;;;6.00;3.37;;;;;;;;;;5011597;28;20191;-52
2023/08/16 08:45:15;;;;;;;6.37;3.20;;;;;;;;;;5011628;28;20297;-52
2023/08/16 08:47:44;;;;;;;5.70;2.90;;;;;;;;;;5011360;28;20216;-52
2023/08/16 08:50:10;;;;;;;5.23;3.20;;;;;;;;;;5011527;28;20201;-52
2023/08/16 08:52:36;;;;;;;3.83;3.00;;;;;;;;;;5010978;28;20680;-52
2023/08/16 08:55:03;;;;;;;5.93;2.90;;;;;;;;;;5011656;28;20224;-52
2023/08/16 08:57:30;;;;;;;5.60;3.17;;;;;;;;;;5011225;28;20204;-52
2023/08/16 08:59:58;;;;;;;6.13;3.03;;;;;;;;;;5011249;28;20202;-52
2023/08/16 09:02:24;;;;;;;4.77;2.70;;;;;;;;;;5011345;28;20225;-53
2023/08/16 09:04:52;;;;;;;2.73;2.47;;;;;;;;;;5011124;28;20606;-53
2023/08/16 09:07:18;;;;;;;5.50;3.27;;;;;;;;;;5011183;28;20241;-53
2023/08/16 09:09:46;;;;;;;5.97;2.53;;;;;;;;;;5010888;28;20206;-53
2023/08/16 09:12:13;;;;;;;4.93;3.00;;;;;;;;;;5010927;28;20205;-53
2023/08/16 09:14:39;;;;;;;3.77;2.77;;;;;;;;;;5010721;28;20206;-53
2023/08/16 09:17:05;;;;;;;3.77;2.20;;;;;;;;;;5010975;28;20234;-54
2023/08/16 09:19:32;;;;;;;3.90;2.30;;;;;;;;;;5010955;28;20678;-53
2023/08/16 09:21:59;;;;;;;4.67;2.50;;;;;;;;;;5011075;28;20546;-53
2023/08/16 09:24:25;;;;;;;5.17;2.33;;;;;;;;;;5010916;28;20944;-53
2023/08/16 09:26:52;;;;;;;4.07;2.50;;;;;;;;;;5010157;28;20735;-53
2023/08/16 09:29:18;;;;;;;7.23;2.13;;;;;;;;;;5010793;28;20349;-53
2023/08/16 09:31:46;;;;;;;4.63;2.20;;;;;;;;;;5009844;28;20250;-53
2023/08/16 09:34:13;;;;;;;10.50;5.93;;;;;;;;;;5009060;28;20694;-53
2023/08/16 09:36:41;;;;;;;4.47;2.37;;;;;;;;;;5010637;28;20198;-53
2023/08/16 09:39:09;;;;;;;5.90;2.50;;;;;;;;;;5010782;28;20261;-53
2023/08/16 09:41:36;;;;;;;4.97;2.67;;;;;;;;;;5010650;28;20296;-53
2023/08/16 09:44:03;;;;;;;4.00;2.43;;;;;;;;;;5010968;28;20187;-53
2023/08/16 09:46:29;;;;;;;6.27;2.20;;;;;;;;;;5010562;28;20218;-53
2023/08/16 09:49:01;;;;;;;4.37;2.30;;;;;;;;;;5010409;28;20197;-53
2023/08/16 09:51:27;;;;;;;4.60;2.23;;;;;;;;;;5010566;28;20660;-53
2023/08/16 09:53:53;;;;;;;5.63;2.10;;;;;;;;;;5010060;28;20709;-53
2023/08/16 09:56:22;;;;;;;6.33;2.53;;;;;;;;;;5010689;28;20211;-53
2023/08/16 09:58:49;;;;;;;4.23;2.10;;;;;;;;;;5010620;28;20276;-54
2023/08/16 10:01:15;;;;;;;4.33;2.27;;;;;;;;;;5010451;28;20201;-54
2023/08/16 10:03:41;;;;;;;5.00;2.77;;;;;;;;;;5012067;28;20883;-54
2023/08/16 10:06:08;;;;;;;4.47;2.57;;;;;;;;;;5014440;28;20203;-54
2023/08/16 10:08:34;;;;;;;5.97;2.80;;;;;;;;;;5014209;28;20695;-53
2023/08/16 10:11:01;;;;;;;8.80;6.13;;;;;;;;;;5014256;28;20231;-53
2023/08/16 10:13:29;;;;;;;5.70;3.00;;;;;;;;;;5013971;28;20229;-54
2023/08/16 10:15:55;;;;;;;5.33;2.73;;;;;;;;;;5013807;28;20201;-53
2023/08/16 10:18:22;;;;;;;5.97;3.43;;;;;;;;;;5013813;28;20209;-54
2023/08/16 10:20:49;;;;;;;3.47;2.30;;;;;;;;;;5013740;28;20557;-53
2023/08/16 10:23:17;;;;;;;8.00;3.00;;;;;;;;;;5014239;28;20193;-51
2023/08/16 10:25:47;;;;;;;4.87;2.40;;;;;;;;;;5013751;28;20195;-53
2023/08/16 10:28:14;;;;;;;5.47;2.60;;;;;;;;;;5013585;28;20253;-51
2023/08/16 10:30:42;;;;;;;3.80;2.43;;;;;;;;;;5013651;28;20201;-53
2023/08/16 10:33:11;;;;;;;5.03;2.23;;;;;;;;;;5013466;28;20233;-52
2023/08/16 10:35:39;;;;;;;3.37;2.10;;;;;;;;;;5013562;28;20208;-52
2023/08/16 10:38:05;;;;;;;5.27;2.20;;;;;;;;;;5013553;28;20254;-53
2023/08/16 10:40:31;;;;;;;6.07;4.33;;;;;;;;;;5013955;28;20202;-52
2023/08/16 10:42:57;;;;;;;3.20;2.00;;;;;;;;;;5013751;28;20217;-52
2023/08/16 10:45:24;;;;;;;5.17;2.30;;;;;;;;;;4996245;28;20658;-51
2023/08/16 10:47:52;;;;;;;6.27;2.20;;;;;;;;;;5008252;28;20191;-50
2023/08/16 10:50:18;;;;;;;4.20;2.20;;;;;;;;;;5014097;28;20202;-50
2023/08/16 10:52:44;;;;;;;2.63;1.90;;;;;;;;;;5033145;28;20233;-53
2023/08/16 10:55:11;;;;;;;3.73;2.10;;;;;;;;;;5033366;28;20912;-54
2023/08/16 10:57:37;;;;;;;3.27;1.80;;;;;;;;;;5033207;28;20209;-54
2023/08/16 11:00:06;;;;;;;2.67;1.80;;;;;;;;;;5033045;28;20207;-54
2023/08/16 11:02:32;;;;;;;4.00;1.80;;;;;;;;;;5033317;28;20222;-54
2023/08/16 11:05:00;;;;;;;3.37;1.90;;;;;;;;;;5032958;28;20203;-54
2023/08/16 11:07:28;;;;;;;6.50;1.80;;;;;;;;;;5033176;28;20318;-53
2023/08/16 11:09:58;;;;;;;4.73;2.17;;;;;;;;;;5032972;28;21047;-53
2023/08/16 11:12:28;;;;;;;3.70;1.80;;;;;;;;;;5032877;28;20575;-54
2023/08/16 11:14:54;;;;;;;3.53;1.57;;;;;;;;;;5032653;28;20237;-53
2023/08/16 11:17:20;;;;;;;2.93;1.60;;;;;;;;;;5032987;28;20198;-53
2023/08/16 11:19:46;;;;;;;4.37;1.87;;;;;;;;;;5019597;28;20677;-53
2023/08/16 11:22:14;;;;;;;4.43;2.00;;;;;;;;;;5013031;28;20204;-54
2023/08/16 11:24:40;;;;;;;5.30;4.77;;;;;;;;;;5012632;28;20204;-55
2023/08/16 11:27:06;;;;;;;2.63;1.87;;;;;;;;;;5012789;28;20306;-54
2023/08/16 11:29:32;;;;;;;3.37;2.13;;;;;;;;;;5012269;28;20239;-54
2023/08/16 11:31:59;;;;;;;4.07;1.83;;;;;;;;;;5012465;28;20584;-54
2023/08/16 11:34:26;;;;;;;3.87;1.70;;;;;;;;;;5012816;28;20326;-54
2023/08/16 11:36:52;;;;;;;3.37;2.10;;;;;;;;;;5012419;28;20218;-55
2023/08/16 11:39:22;;;;;;;2.77;1.87;;;;;;;;;;5012783;28;20278;-52
2023/08/16 11:41:48;;;;;;;3.83;2.23;;;;;;;;;;5012589;28;20232;-54
2023/08/16 11:44:14;;;;;;;4.33;1.80;;;;;;;;;;5012775;28;20644;-54
2023/08/16 11:46:40;;;;;;;3.47;1.70;;;;;;;;;;5012353;28;20227;-55
2023/08/16 11:49:08;;;;;;;8.80;6.43;;;;;;;;;;5012322;28;20253;-54
2023/08/16 11:51:34;;;;;;;3.30;2.10;;;;;;;;;;5012727;28;20697;-54
2023/08/16 11:54:00;;;;;;;3.80;1.83;;;;;;;;;;5012509;28;20414;-54
2023/08/16 11:56:29;;;;;;;3.97;2.47;;;;;;;;;;5012537;28;20199;-53
2023/08/16 11:58:56;;;;;;;3.27;2.10;;;;;;;;;;5012023;28;20208;-54
2023/08/16 12:01:22;;;;;;;2.53;1.50;;;;;;;;;;5011831;28;20210;-54
2023/08/16 12:03:48;;;;;;;3.37;1.73;;;;;;;;;;5012194;28;20663;-54
2023/08/16 12:06:16;;;;;;;5.43;1.77;;;;;;;;;;5012435;28;20608;-54
2023/08/16 12:08:48;;;;;;;3.00;1.57;;;;;;;;;;5012269;28;20757;-54
2023/08/16 12:11:14;;;;;;;5.00;1.90;;;;;;;;;;5012267;28;20199;-54
2023/08/16 12:13:41;;;;;;;1.97;1.50;;;;;;;;;;5011579;28;20231;-54
2023/08/16 12:16:07;;;;;;;4.23;1.70;;;;;;;;;;5012066;28;20200;-54
2023/08/16 12:18:33;;;;;;;7.07;5.23;;;;;;;;;;5012084;28;20274;-54
2023/08/16 12:20:59;;;;;;;6.63;2.23;;;;;;;;;;4994170;28;20765;-54
2023/08/16 12:23:25;;;;;;;2.30;1.60;;;;;;;;;;5012131;28;20244;-54
2023/08/16 12:25:51;;;;;;;3.73;1.80;;;;;;;;;;5010930;28;20298;-55
2023/08/16 12:28:17;;;;;;;2.53;1.67;;;;;;;;;;5011812;28;20335;-54
2023/08/16 12:30:45;;;;;;;2.33;1.43;;;;;;;;;;5011951;28;20198;-54
2023/08/16 12:33:12;;;;;;;1.60;1.30;;;;;;;;;;5011681;28;20562;-54
2023/08/16 12:35:38;;;;;;;2.90;1.53;;;;;;;;;;5011661;28;20205;-54
2023/08/16 12:38:04;;;;;;;4.83;1.70;;;;;;;;;;5011261;28;20211;-54
2023/08/16 12:40:30;;;;;;;4.83;2.07;;;;;;;;;;5011645;28;20197;-54
2023/08/16 12:42:57;;;;;;;2.80;1.73;;;;;;;;;;5011492;28;20201;-54
2023/08/16 12:45:23;;;;;;;3.40;1.80;;;;;;;;;;5011676;28;20556;-54
2023/08/16 12:47:50;;;;;;;1.93;1.60;;;;;;;;;;5011512;28;20231;-54
2023/08/16 12:50:16;;;;;;;3.97;1.60;;;;;;;;;;5011483;28;20201;-54
2023/08/16 12:52:42;;;;;;;3.30;1.90;;;;;;;;;;5011283;28;20209;-54
2023/08/16 12:55:08;;;;;;;3.03;1.60;;;;;;;;;;5011359;28;20209;-55
2023/08/16 12:57:34;;;;;;;2.60;1.50;;;;;;;;;;5011511;28;20200;-54
2023/08/16 13:00:00;;;;;;;4.77;3.47;;;;;;;;;;5011303;28;20193;-54
2023/08/16 13:02:26;;;;;;;4.47;1.60;;;;;;;;;;5010931;28;20227;-54
2023/08/16 13:04:54;;;;;;;4.67;1.70;;;;;;;;;;5010754;28;20205;-54
2023/08/16 13:07:20;;;;;;;2.87;1.70;;;;;;;;;;5011405;28;20230;-54
2023/08/16 13:09:46;;;;;;;3.20;1.60;;;;;;;;;;5011251;28;20235;-54
2023/08/16 13:12:12;;;;;;;7.13;1.70;;;;;;;;;;5010822;28;20208;-54
2023/08/16 13:14:38;;;;;;;5.60;1.70;;;;;;;;;;5007389;28;20232;-54
2023/08/16 13:17:04;;;;;;;2.23;1.50;;;;;;;;;;5002768;28;20212;-53
2023/08/16 13:19:31;;;;;;;3.70;1.60;;;;;;;;;;5011292;28;20252;-53
2023/08/16 13:21:58;;;;;;;3.10;1.87;;;;;;;;;;5011147;28;20232;-55
2023/08/16 13:24:25;;;;;;;3.70;2.00;;;;;;;;;;5011115;28;20236;-55
2023/08/16 13:26:51;;;;;;;4.73;2.40;;;;;;;;;;5011111;28;20244;-56
2023/08/16 13:29:17;;;;;;;5.03;2.77;;;;;;;;;;5010819;28;20703;-55
2023/08/16 13:31:43;;;;;;;2.10;1.50;;;;;;;;;;5011063;28;20207;-55
2023/08/16 13:34:09;;;;;;;2.80;1.67;;;;;;;;;;5010742;28;20907;-56
2023/08/16 13:36:35;;;;;;;2.40;1.60;;;;;;;;;;5010880;28;20209;-55
2023/08/16 13:39:04;;;;;;;4.13;1.70;;;;;;;;;;5013240;28;20266;-57
2023/08/16 13:41:30;;;;;;;3.37;1.70;;;;;;;;;;5009984;28;20202;-56
2023/08/16 13:43:56;;;;;;;5.07;1.70;;;;;;;;;;5005429;28;20250;-56
2023/08/16 13:46:22;;;;;;;3.03;1.60;;;;;;;;;;5003677;28;20198;-56
2023/08/16 13:48:48;;;;;;;3.07;1.60;;;;;;;;;;5004394;28;20193;-57
2023/08/16 13:51:14;;;;;;;2.43;1.57;;;;;;;;;;5005419;28;20614;-57
2023/08/16 13:53:40;;;;;;;3.57;1.80;;;;;;;;;;5003433;28;20218;-57
2023/08/16 13:56:08;;;;;;;3.03;1.40;;;;;;;;;;5004614;28;20686;-55
2023/08/16 13:58:34;;;;;;;4.30;1.70;;;;;;;;;;5005670;28;20206;-55
2023/08/16 14:01:00;;;;;;;4.37;1.43;;;;;;;;;;5003308;28;20603;-55
2023/08/16 14:03:26;;;;;;;4.27;2.03;;;;;;;;;;5004513;28;20221;-56
2023/08/16 14:05:54;;;;;;;3.83;1.53;;;;;;;;;;5004774;28;20209;-56
2023/08/16 14:08:20;;;;;;;5.37;1.63;;;;;;;;;;5003068;28;20257;-55
2023/08/16 14:10:50;;;;;;;2.53;1.30;;;;;;;;;;5004831;28;20193;-55
2023/08/16 14:13:17;;;;;;;3.23;1.70;;;;;;;;;;5004550;28;20218;-54
2023/08/16 14:15:43;;;;;;;2.50;1.60;;;;;;;;;;5003011;28;20202;-54
2023/08/16 14:18:09;;;;;;;2.60;1.50;;;;;;;;;;5004771;28;20284;-57
2023/08/16 14:20:35;;;;;;;4.17;1.73;;;;;;;;;;5004435;28;20656;-54
2023/08/16 14:23:01;;;;;;;2.70;1.50;;;;;;;;;;5003187;28;20205;-55
2023/08/16 14:25:27;;;;;;;5.43;1.57;;;;;;;;;;5004300;28;20199;-54
2023/08/16 14:27:53;;;;;;;3.90;2.00;;;;;;;;;;4999770;28;20242;-57
2023/08/16 14:30:21;;;;;;;4.87;1.60;;;;;;;;;;4994851;28;20199;-48
2023/08/16 14:32:46;;;;;;;3.33;1.70;;;;;;;;;;4994678;28;20580;-49
2023/08/16 14:35:12;;;;;;;6.57;5.70;;;;;;;;;;4994329;28;20749;-49
2023/08/16 14:37:38;;;;;;;2.80;1.70;;;;;;;;;;4994330;28;20206;-48
2023/08/16 14:40:05;;;;;;;4.10;1.53;;;;;;;;;;4986241;28;20206;-48